sensor_id;sensor_type;location;lat;lon;timestamp;pressure;altitude;pressure_sealevel;temperature;humidity
74973;BME280;63529;56.320;43.990;2023-03-31T00:01:30;98976.13;;;6.56;66.13
74973;BME280;63529;56.320;43.990;2023-03-31T00:04:01;98981.94;;;6.53;66.12
74973;BME280;63529;56.320;43.990;2023-03-31T00:06:31;98977.72;;;6.52;66.28
74973;BME280;63529;56.320;43.990;2023-03-31T00:09:08;98989.59;;;6.49;66.03
74973;BME280;63529;56.320;43.990;2023-03-31T00:11:34;98983.19;;;6.45;66.39
74973;BME280;63529;56.320;43.990;2023-03-31T00:14:00;98984.03;;;6.46;66.46
74973;BME280;63529;56.320;43.990;2023-03-31T00:16:26;98985.06;;;6.45;66.28
74973;BME280;63529;56.320;43.990;2023-03-31T00:18:52;98982.94;;;6.42;66.49
74973;BME280;63529;56.320;43.990;2023-03-31T00:21:21;98980.78;;;6.39;66.35
74973;BME280;63529;56.320;43.990;2023-03-31T00:23:57;98980.78;;;6.39;66.27
74973;BME280;63529;56.320;43.990;2023-03-31T00:26:24;98969.63;;;6.37;66.61
74973;BME280;63529;56.320;43.990;2023-03-31T00:28:51;98965.41;;;6.36;66.86
74973;BME280;63529;56.320;43.990;2023-03-31T00:31:18;98972.28;;;6.37;66.39
74973;BME280;63529;56.320;43.990;2023-03-31T00:33:44;98963.81;;;6.35;66.77
74973;BME280;63529;56.320;43.990;2023-03-31T00:36:09;98967.50;;;6.34;66.83
74973;BME280;63529;56.320;43.990;2023-03-31T00:38:35;98964.88;;;6.34;66.90
74973;BME280;63529;56.320;43.990;2023-03-31T00:41:02;98955.56;;;6.31;66.84
74973;BME280;63529;56.320;43.990;2023-03-31T00:43:36;98951.31;;;6.30;67.24
74973;BME280;63529;56.320;43.990;2023-03-31T00:46:14;98957.41;;;6.31;67.11
74973;BME280;63529;56.320;43.990;2023-03-31T00:48:54;98958.72;;;6.28;67.16
74973;BME280;63529;56.320;43.990;2023-03-31T00:51:23;98956.06;;;6.28;67.07
74973;BME280;63529;56.320;43.990;2023-03-31T00:54:02;98957.41;;;6.31;67.28
74973;BME280;63529;56.320;43.990;2023-03-31T00:56:36;98949.41;;;6.25;67.44
74973;BME280;63529;56.320;43.990;2023-03-31T00:59:06;98955.28;;;6.28;67.31
74973;BME280;63529;56.320;43.990;2023-03-31T01:01:33;98949.19;;;6.27;67.49
74973;BME280;63529;56.320;43.990;2023-03-31T01:04:05;98949.97;;;6.28;67.64
74973;BME280;63529;56.320;43.990;2023-03-31T01:06:32;98942.03;;;6.28;67.34
74973;BME280;63529;56.320;43.990;2023-03-31T01:08:59;98937.00;;;6.26;67.57
74973;BME280;63529;56.320;43.990;2023-03-31T01:11:32;98932.97;;;6.23;67.59
74973;BME280;63529;56.320;43.990;2023-03-31T01:13:59;98939.88;;;6.24;67.47
74973;BME280;63529;56.320;43.990;2023-03-31T01:16:26;98942.78;;;6.23;67.66
74973;BME280;63529;56.320;43.990;2023-03-31T01:18:52;98946.22;;;6.23;67.74
74973;BME280;63529;56.320;43.990;2023-03-31T01:38:13;98941.19;;;6.22;68.09
74973;BME280;63529;56.320;43.990;2023-03-31T01:43:15;98929.75;;;6.16;68.20
74973;BME280;63529;56.320;43.990;2023-03-31T01:52:13;98934.19;;;6.06;68.80
74973;BME280;63529;56.320;43.990;2023-03-31T01:55:06;98925.44;;;6.00;69.00
74973;BME280;63529;56.320;43.990;2023-03-31T01:57:41;98913.19;;;5.94;69.00
74973;BME280;63529;56.320;43.990;2023-03-31T02:00:12;98940.88;;;5.86;69.06
74973;BME280;63529;56.320;43.990;2023-03-31T02:02:48;98944.31;;;5.82;69.38
74973;BME280;63529;56.320;43.990;2023-03-31T02:05:21;98939.97;;;5.70;69.54
74973;BME280;63529;56.320;43.990;2023-03-31T02:07:55;98953.41;;;5.64;69.82
74973;BME280;63529;56.320;43.990;2023-03-31T02:10:25;98941.50;;;5.61;69.99
74973;BME280;63529;56.320;43.990;2023-03-31T02:12:58;98950.22;;;5.62;70.39
74973;BME280;63529;56.320;43.990;2023-03-31T02:15:29;98965.59;;;5.65;70.55
74973;BME280;63529;56.320;43.990;2023-03-31T02:18:00;98969.34;;;5.69;70.66
74973;BME280;63529;56.320;43.990;2023-03-31T02:20:28;98973.09;;;5.73;70.59
74973;BME280;63529;56.320;43.990;2023-03-31T02:22:57;98965.44;;;5.77;70.64
74973;BME280;63529;56.320;43.990;2023-03-31T02:25:39;98966.56;;;5.81;70.87
74973;BME280;63529;56.320;43.990;2023-03-31T02:28:07;98957.28;;;5.83;70.63
74973;BME280;63529;56.320;43.990;2023-03-31T02:30:38;98963.13;;;5.85;70.73
74973;BME280;63529;56.320;43.990;2023-03-31T02:33:08;98955.44;;;5.84;70.51
74973;BME280;63529;56.320;43.990;2023-03-31T02:35:34;98971.06;;;5.85;70.75
74973;BME280;63529;56.320;43.990;2023-03-31T02:38:01;98978.22;;;5.85;70.57
74973;BME280;63529;56.320;43.990;2023-03-31T02:40:28;98983.53;;;5.85;70.80
74973;BME280;63529;56.320;43.990;2023-03-31T02:42:55;98991.72;;;5.83;71.08
74973;BME280;63529;56.320;43.990;2023-03-31T02:45:49;98984.03;;;5.82;71.10
74973;BME280;63529;56.320;43.990;2023-03-31T02:48:19;98984.25;;;5.80;71.40
74973;BME280;63529;56.320;43.990;2023-03-31T02:56:13;98979.28;;;5.84;71.49
74973;BME280;63529;56.320;43.990;2023-03-31T03:15:17;98920.53;;;6.24;70.38
74973;BME280;63529;56.320;43.990;2023-03-31T03:17:46;98918.72;;;6.30;70.35
74973;BME280;63529;56.320;43.990;2023-03-31T03:20:21;98934.13;;;6.38;70.45
74973;BME280;63529;56.320;43.990;2023-03-31T03:23:01;98941.84;;;6.44;70.26
74973;BME280;63529;56.320;43.990;2023-03-31T03:25:48;98946.38;;;6.49;69.98
74973;BME280;63529;56.320;43.990;2023-03-31T03:28:16;98950.94;;;6.53;69.86
74973;BME280;63529;56.320;43.990;2023-03-31T03:30:59;98941.69;;;6.61;69.87
74973;BME280;63529;56.320;43.990;2023-03-31T03:33:53;98930.91;;;6.83;69.76
74973;BME280;63529;56.320;43.990;2023-03-31T03:36:36;98913.75;;;7.06;69.03
74973;BME280;63529;56.320;43.990;2023-03-31T03:39:26;98915.94;;;7.24;68.40
74973;BME280;63529;56.320;43.990;2023-03-31T03:41:52;98929.75;;;7.42;68.26
74973;BME280;63529;56.320;43.990;2023-03-31T03:44:18;98924.44;;;7.62;67.74
74973;BME280;63529;56.320;43.990;2023-03-31T03:46:44;98908.53;;;7.72;67.38
74973;BME280;63529;56.320;43.990;2023-03-31T03:49:10;98906.94;;;7.81;67.02
74973;BME280;63529;56.320;43.990;2023-03-31T03:51:36;98908.00;;;7.91;66.86
74973;BME280;63529;56.320;43.990;2023-03-31T03:54:02;98904.56;;;7.90;66.85
74973;BME280;63529;56.320;43.990;2023-03-31T03:56:28;98908.00;;;7.80;66.87
74973;BME280;63529;56.320;43.990;2023-03-31T03:58:54;98911.19;;;7.67;67.05
74973;BME280;63529;56.320;43.990;2023-03-31T04:01:20;98910.13;;;7.58;67.51
74973;BME280;63529;56.320;43.990;2023-03-31T04:03:46;98912.25;;;7.51;67.68
74973;BME280;63529;56.320;43.990;2023-03-31T04:06:11;98901.34;;;7.52;67.90
74973;BME280;63529;56.320;43.990;2023-03-31T04:08:37;98892.31;;;7.74;67.90
74973;BME280;63529;56.320;43.990;2023-03-31T04:11:13;98891.47;;;8.14;67.69
74973;BME280;63529;56.320;43.990;2023-03-31T04:13:39;98897.28;;;8.47;66.79
74973;BME280;63529;56.320;43.990;2023-03-31T04:16:06;98894.31;;;8.58;66.01
74973;BME280;63529;56.320;43.990;2023-03-31T04:18:32;98895.09;;;8.64;65.94
74973;BME280;63529;56.320;43.990;2023-03-31T04:20:58;98890.31;;;8.66;65.64
74973;BME280;63529;56.320;43.990;2023-03-31T04:23:34;98882.31;;;8.66;65.68
74973;BME280;63529;56.320;43.990;2023-03-31T04:26:08;98881.78;;;8.69;65.53
74973;BME280;63529;56.320;43.990;2023-03-31T04:28:35;98878.63;;;8.62;65.61
74973;BME280;63529;56.320;43.990;2023-03-31T04:31:02;98884.25;;;8.50;65.67
74973;BME280;63529;56.320;43.990;2023-03-31T04:33:28;98888.78;;;8.39;65.97
74973;BME280;63529;56.320;43.990;2023-03-31T04:35:54;98887.19;;;8.33;66.25
74973;BME280;63529;56.320;43.990;2023-03-31T04:38:22;98883.50;;;8.29;66.54
74973;BME280;63529;56.320;43.990;2023-03-31T04:40:50;98879.22;;;8.33;66.88
74973;BME280;63529;56.320;43.990;2023-03-31T04:43:18;98885.63;;;8.37;66.59
74973;BME280;63529;56.320;43.990;2023-03-31T04:45:44;98887.72;;;8.40;66.58
74973;BME280;63529;56.320;43.990;2023-03-31T04:48:10;98881.09;;;8.43;66.50
74973;BME280;63529;56.320;43.990;2023-03-31T04:50:37;98878.38;;;8.53;66.46
74973;BME280;63529;56.320;43.990;2023-03-31T04:53:03;98881.81;;;8.64;66.06
74973;BME280;63529;56.320;43.990;2023-03-31T04:55:30;98887.38;;;8.67;65.81
74973;BME280;63529;56.320;43.990;2023-03-31T04:57:56;98887.91;;;8.69;65.64
74973;BME280;63529;56.320;43.990;2023-03-31T05:00:22;98884.94;;;8.76;65.81
74973;BME280;63529;56.320;43.990;2023-03-31T05:02:49;98892.13;;;8.81;65.39
74973;BME280;63529;56.320;43.990;2023-03-31T05:05:16;98885.16;;;8.85;65.40
74973;BME280;63529;56.320;43.990;2023-03-31T05:07:41;98875.50;;;8.99;64.96
74973;BME280;63529;56.320;43.990;2023-03-31T05:10:08;98888.75;;;9.14;64.82
74973;BME280;63529;56.320;43.990;2023-03-31T05:12:35;98899.38;;;9.19;64.46
74973;BME280;63529;56.320;43.990;2023-03-31T05:15:01;98889.81;;;9.13;64.28
74973;BME280;63529;56.320;43.990;2023-03-31T05:17:33;98867.44;;;9.19;64.54
74973;BME280;63529;56.320;43.990;2023-03-31T05:19:59;98844.09;;;9.40;64.22
74973;BME280;63529;56.320;43.990;2023-03-31T05:22:26;98853.75;;;9.65;63.70
74973;BME280;63529;56.320;43.990;2023-03-31T05:24:52;98859.75;;;9.81;62.54
74973;BME280;63529;56.320;43.990;2023-03-31T05:27:17;98864.25;;;9.86;62.68
74973;BME280;63529;56.320;43.990;2023-03-31T05:29:46;98870.06;;;9.88;62.25
74973;BME280;63529;56.320;43.990;2023-03-31T05:32:12;98873.09;;;9.76;62.28
74973;BME280;63529;56.320;43.990;2023-03-31T05:34:38;98887.66;;;9.60;62.68
74973;BME280;63529;56.320;43.990;2023-03-31T05:37:03;98897.09;;;9.42;62.97
74973;BME280;63529;56.320;43.990;2023-03-31T05:39:29;98885.50;;;9.22;63.51
74973;BME280;63529;56.320;43.990;2023-03-31T05:41:58;98897.56;;;9.10;63.82
74973;BME280;63529;56.320;43.990;2023-03-31T05:44:24;98892.28;;;9.00;64.08
74973;BME280;63529;56.320;43.990;2023-03-31T05:46:54;98889.13;;;8.92;64.36
74973;BME280;63529;56.320;43.990;2023-03-31T05:49:20;98892.06;;;8.86;64.56
74973;BME280;63529;56.320;43.990;2023-03-31T05:51:46;98872.44;;;8.77;64.78
74973;BME280;63529;56.320;43.990;2023-03-31T05:54:13;98874.88;;;8.68;65.07
74973;BME280;63529;56.320;43.990;2023-03-31T05:56:38;98864.47;;;8.72;65.35
74973;BME280;63529;56.320;43.990;2023-03-31T05:59:04;98871.88;;;8.80;65.29
74973;BME280;63529;56.320;43.990;2023-03-31T06:01:31;98868.41;;;8.84;65.12
74973;BME280;63529;56.320;43.990;2023-03-31T06:03:56;98851.31;;;8.95;65.10
74973;BME280;63529;56.320;43.990;2023-03-31T06:06:23;98859.22;;;9.11;64.68
74973;BME280;63529;56.320;43.990;2023-03-31T06:08:50;98842.06;;;9.27;64.59
74973;BME280;63529;56.320;43.990;2023-03-31T06:11:18;98851.53;;;9.43;64.32
74973;BME280;63529;56.320;43.990;2023-03-31T06:13:44;98850.44;;;9.44;63.75
74973;BME280;63529;56.320;43.990;2023-03-31T06:16:12;98843.56;;;9.38;63.70
74973;BME280;63529;56.320;43.990;2023-03-31T06:18:39;98843.09;;;9.31;63.74
74973;BME280;63529;56.320;43.990;2023-03-31T06:21:05;98840.53;;;9.21;64.15
74973;BME280;63529;56.320;43.990;2023-03-31T06:23:32;98858.41;;;9.10;64.46
74973;BME280;63529;56.320;43.990;2023-03-31T06:26:04;98863.84;;;8.95;64.46
74973;BME280;63529;56.320;43.990;2023-03-31T06:28:30;98855.91;;;8.80;64.91
74973;BME280;63529;56.320;43.990;2023-03-31T06:31:01;98860.22;;;8.70;65.28
74973;BME280;63529;56.320;43.990;2023-03-31T06:33:28;98861.31;;;8.64;65.42
74973;BME280;63529;56.320;43.990;2023-03-31T06:35:55;98849.63;;;8.60;65.65
74973;BME280;63529;56.320;43.990;2023-03-31T06:38:22;98842.19;;;8.57;65.73
74973;BME280;63529;56.320;43.990;2023-03-31T06:40:48;98847.81;;;8.56;65.66
74973;BME280;63529;56.320;43.990;2023-03-31T06:43:14;98843.81;;;8.53;65.64
74973;BME280;63529;56.320;43.990;2023-03-31T06:45:40;98849.41;;;8.47;65.95
74973;BME280;63529;56.320;43.990;2023-03-31T06:48:06;98847.31;;;8.38;65.99
74973;BME280;63529;56.320;43.990;2023-03-31T06:50:32;98855.84;;;8.35;66.17
74973;BME280;63529;56.320;43.990;2023-03-31T06:52:58;98854.25;;;8.29;66.38
74973;BME280;63529;56.320;43.990;2023-03-31T06:55:24;98858.50;;;8.25;66.57
74973;BME280;63529;56.320;43.990;2023-03-31T06:57:50;98860.38;;;8.20;66.45
74973;BME280;63529;56.320;43.990;2023-03-31T07:00:16;98847.66;;;8.11;66.70
74973;BME280;63529;56.320;43.990;2023-03-31T07:02:42;98840.75;;;8.10;67.07
74973;BME280;63529;56.320;43.990;2023-03-31T07:05:08;98833.56;;;8.11;67.31
74973;BME280;63529;56.320;43.990;2023-03-31T07:07:34;98849.00;;;8.09;67.33
74973;BME280;63529;56.320;43.990;2023-03-31T07:10:00;98851.94;;;8.02;67.46
74973;BME280;63529;56.320;43.990;2023-03-31T07:12:26;98852.19;;;8.01;67.90
74973;BME280;63529;56.320;43.990;2023-03-31T07:14:52;98852.19;;;8.01;67.79
74973;BME280;63529;56.320;43.990;2023-03-31T07:17:18;98861.22;;;8.00;68.06
74973;BME280;63529;56.320;43.990;2023-03-31T07:19:43;98852.19;;;8.01;68.05
74973;BME280;63529;56.320;43.990;2023-03-31T07:22:13;98856.41;;;8.02;68.20
74973;BME280;63529;56.320;43.990;2023-03-31T07:24:39;98853.25;;;8.00;68.49
74973;BME280;63529;56.320;43.990;2023-03-31T07:27:05;98848.22;;;7.98;68.49
74973;BME280;63529;56.320;43.990;2023-03-31T07:29:31;98840.50;;;7.97;68.60
74973;BME280;63529;56.320;43.990;2023-03-31T07:31:56;98851.13;;;7.97;68.65
74973;BME280;63529;56.320;43.990;2023-03-31T07:34:22;98860.41;;;7.94;68.53
74973;BME280;63529;56.320;43.990;2023-03-31T07:36:48;98856.97;;;7.88;68.80
74973;BME280;63529;56.320;43.990;2023-03-31T07:39:14;98854.88;;;7.80;68.93
74973;BME280;63529;56.320;43.990;2023-03-31T07:41:40;98841.34;;;7.77;69.31
74973;BME280;63529;56.320;43.990;2023-03-31T07:44:06;98838.41;;;7.73;69.28
74973;BME280;63529;56.320;43.990;2023-03-31T07:46:32;98835.22;;;7.71;69.59
74973;BME280;63529;56.320;43.990;2023-03-31T07:48:58;98840.00;;;7.74;69.62
74973;BME280;63529;56.320;43.990;2023-03-31T07:51:26;98843.44;;;7.75;69.76
74973;BME280;63529;56.320;43.990;2023-03-31T07:53:52;98849.81;;;7.74;69.72
74973;BME280;63529;56.320;43.990;2023-03-31T07:56:23;98846.66;;;7.72;69.83
74973;BME280;63529;56.320;43.990;2023-03-31T07:58:50;98842.94;;;7.73;69.96
74973;BME280;63529;56.320;43.990;2023-03-31T08:01:18;98827.78;;;7.73;70.22
74973;BME280;63529;56.320;43.990;2023-03-31T08:03:46;98828.84;;;7.77;69.80
74973;BME280;63529;56.320;43.990;2023-03-31T08:06:23;98815.03;;;7.80;70.04
74973;BME280;63529;56.320;43.990;2023-03-31T08:08:50;98808.13;;;7.79;70.00
74973;BME280;63529;56.320;43.990;2023-03-31T08:11:16;98819.03;;;7.78;70.26
74973;BME280;63529;56.320;43.990;2023-03-31T08:13:43;98813.44;;;7.74;70.27
74973;BME280;63529;56.320;43.990;2023-03-31T08:16:09;98827.00;;;7.73;70.45
74973;BME280;63529;56.320;43.990;2023-03-31T08:18:35;98817.72;;;7.70;70.23
74973;BME280;63529;56.320;43.990;2023-03-31T08:21:00;98828.34;;;7.65;70.47
74973;BME280;63529;56.320;43.990;2023-03-31T08:23:26;98839.50;;;7.57;70.59
74973;BME280;63529;56.320;43.990;2023-03-31T08:25:52;98830.72;;;7.51;70.70
74973;BME280;63529;56.320;43.990;2023-03-31T08:28:18;98827.28;;;7.46;71.17
74973;BME280;63529;56.320;43.990;2023-03-31T08:30:44;98833.91;;;7.43;71.34
74973;BME280;63529;56.320;43.990;2023-03-31T08:33:10;98823.56;;;7.42;71.57
74973;BME280;63529;56.320;43.990;2023-03-31T08:35:39;98816.13;;;7.39;71.49
74973;BME280;63529;56.320;43.990;2023-03-31T08:38:05;98823.03;;;7.40;71.64
74973;BME280;63529;56.320;43.990;2023-03-31T08:40:31;98808.16;;;7.39;71.83
74973;BME280;63529;56.320;43.990;2023-03-31T08:43:11;98822.75;;;7.41;71.86
74973;BME280;63529;56.320;43.990;2023-03-31T08:45:41;98825.13;;;7.43;71.69
74973;BME280;63529;56.320;43.990;2023-03-31T08:50:48;98807.63;;;7.47;71.88
74973;BME280;63529;56.320;43.990;2023-03-31T08:53:36;98800.72;;;7.51;71.75
74973;BME280;63529;56.320;43.990;2023-03-31T08:56:07;98815.03;;;7.55;71.72
74973;BME280;63529;56.320;43.990;2023-03-31T08:58:41;98812.66;;;7.58;71.69
74973;BME280;63529;56.320;43.990;2023-03-31T09:12:43;98794.84;;;7.74;71.29
74973;BME280;63529;56.320;43.990;2023-03-31T09:15:27;98792.19;;;7.79;71.58
74973;BME280;63529;56.320;43.990;2023-03-31T09:17:55;98777.81;;;7.85;71.29
74973;BME280;63529;56.320;43.990;2023-03-31T09:20:30;98769.56;;;7.87;71.19
74973;BME280;63529;56.320;43.990;2023-03-31T09:25:45;98771.22;;;7.73;71.41
74973;BME280;63529;56.320;43.990;2023-03-31T09:28:23;98769.91;;;7.60;71.66
74973;BME280;63529;56.320;43.990;2023-03-31T09:30:51;98778.94;;;7.49;72.02
74973;BME280;63529;56.320;43.990;2023-03-31T09:33:29;98775.25;;;7.40;72.53
74973;BME280;63529;56.320;43.990;2023-03-31T09:36:12;98776.31;;;7.33;72.75
74973;BME280;63529;56.320;43.990;2023-03-31T09:38:40;98752.41;;;7.28;72.93
74973;BME280;63529;56.320;43.990;2023-03-31T09:41:07;98740.75;;;7.24;73.09
74973;BME280;63529;56.320;43.990;2023-03-31T09:43:34;98739.16;;;7.23;73.23
74973;BME280;63529;56.320;43.990;2023-03-31T09:46:01;98732.78;;;7.19;73.17
74973;BME280;63529;56.320;43.990;2023-03-31T09:48:31;98724.03;;;7.14;73.45
74973;BME280;63529;56.320;43.990;2023-03-31T09:51:04;98725.38;;;7.11;73.55
74973;BME280;63529;56.320;43.990;2023-03-31T09:56:02;98717.38;;;7.16;73.54
74973;BME280;63529;56.320;43.990;2023-03-31T09:58:28;98713.16;;;7.20;73.75
74973;BME280;63529;56.320;43.990;2023-03-31T10:01:10;98714.75;;;7.16;73.65
74973;BME280;63529;56.320;43.990;2023-03-31T10:03:48;98721.09;;;7.10;73.74
74973;BME280;63529;56.320;43.990;2023-03-31T10:06:15;98709.72;;;7.04;74.15
74973;BME280;63529;56.320;43.990;2023-03-31T10:09:03;98708.38;;;7.02;74.26
74973;BME280;63529;56.320;43.990;2023-03-31T10:11:28;98708.38;;;6.97;74.50
74973;BME280;63529;56.320;43.990;2023-03-31T10:16:30;98705.19;;;6.90;74.86
74973;BME280;63529;56.320;43.990;2023-03-31T10:19:46;98683.47;;;6.88;75.19
74973;BME280;63529;56.320;43.990;2023-03-31T10:22:05;98676.31;;;6.93;74.97
74973;BME280;63529;56.320;43.990;2023-03-31T10:24:52;98664.06;;;7.02;75.07
74973;BME280;63529;56.320;43.990;2023-03-31T10:27:30;98650.25;;;7.16;74.43
74973;BME280;63529;56.320;43.990;2023-03-31T10:29:59;98646.25;;;7.28;74.36
74973;BME280;63529;56.320;43.990;2023-03-31T10:32:30;98627.94;;;7.37;73.97
74973;BME280;63529;56.320;43.990;2023-03-31T10:35:02;98623.38;;;7.43;74.12
74973;BME280;63529;56.320;43.990;2023-03-31T10:37:30;98638.50;;;7.42;73.93
74973;BME280;63529;56.320;43.990;2023-03-31T10:40:03;98642.00;;;7.32;73.92
74973;BME280;63529;56.320;43.990;2023-03-31T10:42:33;98660.34;;;7.19;73.88
74973;BME280;63529;56.320;43.990;2023-03-31T10:47:49;98670.44;;;6.96;74.64
74973;BME280;63529;56.320;43.990;2023-03-31T10:50:17;98686.66;;;6.85;74.69
74973;BME280;63529;56.320;43.990;2023-03-31T10:52:44;98718.97;;;6.71;74.98
74973;BME280;63529;56.320;43.990;2023-03-31T10:55:12;98697.22;;;6.64;75.12
74973;BME280;63529;56.320;43.990;2023-03-31T10:57:54;98676.03;;;6.59;75.62
74973;BME280;63529;56.320;43.990;2023-03-31T11:00:31;98695.63;;;6.58;75.66
74973;BME280;63529;56.320;43.990;2023-03-31T11:06:27;98683.44;;;6.47;75.45
74973;BME280;63529;56.320;43.990;2023-03-31T11:14:11;98673.59;;;6.22;75.29
74973;BME280;63529;56.320;43.990;2023-03-31T11:17:02;98682.06;;;6.14;75.23
74973;BME280;63529;56.320;43.990;2023-03-31T11:19:54;98662.16;;;6.11;74.86
74973;BME280;63529;56.320;43.990;2023-03-31T11:22:33;98666.13;;;6.09;75.26
74973;BME280;63529;56.320;43.990;2023-03-31T11:25:22;98666.94;;;6.09;75.18
74973;BME280;63529;56.320;43.990;2023-03-31T11:43:01;98647.78;;;5.92;75.46
74973;BME280;63529;56.320;43.990;2023-03-31T11:45:31;98652.03;;;5.93;75.30
74973;BME280;63529;56.320;43.990;2023-03-31T11:48:02;98643.06;;;5.94;75.33
74973;BME280;63529;56.320;43.990;2023-03-31T11:50:32;98646.75;;;5.93;75.19
74973;BME280;63529;56.320;43.990;2023-03-31T11:53:16;98652.03;;;5.93;75.23
74973;BME280;63529;56.320;43.990;2023-03-31T11:55:46;98645.16;;;5.92;74.87
74973;BME280;63529;56.320;43.990;2023-03-31T11:58:20;98636.41;;;5.91;75.19
74973;BME280;63529;56.320;43.990;2023-03-31T12:00:59;98649.38;;;5.93;75.06
74973;BME280;63529;56.320;43.990;2023-03-31T12:03:48;98637.72;;;5.89;75.10
74973;BME280;63529;56.320;43.990;2023-03-31T12:06:19;98647.25;;;5.90;75.37
74973;BME280;63529;56.320;43.990;2023-03-31T12:14:43;98650.69;;;5.90;75.05
74973;BME280;63529;56.320;43.990;2023-03-31T12:17:13;98647.78;;;5.92;74.74
74973;BME280;63529;56.320;43.990;2023-03-31T12:19:53;98653.34;;;5.90;75.01
74973;BME280;63529;56.320;43.990;2023-03-31T12:22:28;98644.88;;;5.88;75.00
74973;BME280;63529;56.320;43.990;2023-03-31T12:24:57;98637.72;;;5.89;75.08
74973;BME280;63529;56.320;43.990;2023-03-31T12:27:30;98644.88;;;5.88;75.34
74973;BME280;63529;56.320;43.990;2023-03-31T12:30:10;98633.22;;;5.89;74.97
74973;BME280;63529;56.320;43.990;2023-03-31T12:32:40;98636.16;;;5.93;75.41
74973;BME280;63529;56.320;43.990;2023-03-31T12:35:21;98627.69;;;5.96;75.28
74973;BME280;63529;56.320;43.990;2023-03-31T12:37:55;98629.28;;;5.97;75.19
74973;BME280;63529;56.320;43.990;2023-03-31T12:40:42;98622.66;;;5.99;75.21
74973;BME280;63529;56.320;43.990;2023-03-31T12:43:49;98629.03;;;6.04;74.90
74973;BME280;63529;56.320;43.990;2023-03-31T12:57:34;98629.03;;;6.04;74.84
74973;BME280;63529;56.320;43.990;2023-03-31T13:02:36;98626.91;;;6.01;74.81
74973;BME280;63529;56.320;43.990;2023-03-31T13:08:04;98620.53;;;5.96;74.78
74973;BME280;63529;56.320;43.990;2023-03-31T13:10:33;98613.38;;;5.97;75.19
74973;BME280;63529;56.320;43.990;2023-03-31T13:13:15;98623.97;;;5.97;75.13
74973;BME280;63529;56.320;43.990;2023-03-31T13:15:55;98610.75;;;5.97;75.01
74973;BME280;63529;56.320;43.990;2023-03-31T13:18:22;98618.97;;;5.95;75.04
74973;BME280;63529;56.320;43.990;2023-03-31T13:21:02;98626.91;;;5.95;75.25
74973;BME280;63529;56.320;43.990;2023-03-31T13:23:32;98622.09;;;5.92;75.14
74973;BME280;63529;56.320;43.990;2023-03-31T13:26:00;98611.22;;;5.89;74.93
74973;BME280;63529;56.320;43.990;2023-03-31T13:28:27;98608.06;;;5.87;75.07
74973;BME280;63529;56.320;43.990;2023-03-31T13:44:50;98601.41;;;5.74;75.56
74973;BME280;63529;56.320;43.990;2023-03-31T13:50:34;98598.16;;;5.67;76.23
74973;BME280;63529;56.320;43.990;2023-03-31T13:58:22;98594.19;;;5.59;76.46
74973;BME280;63529;56.320;43.990;2023-03-31T14:03:37;98593.91;;;5.56;77.06
74973;BME280;63529;56.320;43.990;2023-03-31T14:06:22;98591.00;;;5.57;76.71
74973;BME280;63529;56.320;43.990;2023-03-31T14:08:58;98597.09;;;5.58;76.92
74973;BME280;63529;56.320;43.990;2023-03-31T14:11:28;98589.69;;;5.60;77.05
74973;BME280;63529;56.320;43.990;2023-03-31T14:14:18;98586.25;;;5.59;76.64
74973;BME280;63529;56.320;43.990;2023-03-31T14:16:52;98605.03;;;5.58;76.88
74973;BME280;63529;56.320;43.990;2023-03-31T14:28:09;98586.25;;;5.59;77.03
74973;BME280;63529;56.320;43.990;2023-03-31T14:30:46;98592.59;;;5.58;77.53
74973;BME280;63529;56.320;43.990;2023-03-31T14:33:53;98587.03;;;5.55;77.33
74973;BME280;63529;56.320;43.990;2023-03-31T14:36:34;98581.19;;;5.53;77.59
74973;BME280;63529;56.320;43.990;2023-03-31T14:39:05;98597.88;;;5.48;77.45
74973;BME280;63529;56.320;43.990;2023-03-31T14:41:33;98577.19;;;5.45;77.88
74973;BME280;63529;56.320;43.990;2023-03-31T14:44:05;98585.66;;;5.42;77.89
74973;BME280;63529;56.320;43.990;2023-03-31T14:46:36;98582.47;;;5.40;78.16
74973;BME280;63529;56.320;43.990;2023-03-31T14:49:35;98586.44;;;5.37;78.23
74973;BME280;63529;56.320;43.990;2023-03-31T14:52:18;98590.94;;;5.37;78.48
74973;BME280;63529;56.320;43.990;2023-03-31T14:54:45;98586.13;;;5.34;78.35
74973;BME280;63529;56.320;43.990;2023-03-31T14:57:41;98591.97;;;5.31;78.31
74973;BME280;63529;56.320;43.990;2023-03-31T15:00:15;98594.09;;;5.29;78.63
74973;BME280;63529;56.320;43.990;2023-03-31T15:02:46;98599.88;;;5.26;78.69
74973;BME280;63529;56.320;43.990;2023-03-31T15:05:39;98595.63;;;5.25;78.87
74973;BME280;63529;56.320;43.990;2023-03-31T15:08:11;98603.28;;;5.21;79.09
74973;BME280;63529;56.320;43.990;2023-03-31T15:10:43;98599.03;;;5.20;78.97
74973;BME280;63529;56.320;43.990;2023-03-31T15:13:19;98597.72;;;5.17;79.12
74973;BME280;63529;56.320;43.990;2023-03-31T15:15:48;98601.41;;;5.16;79.36
74973;BME280;63529;56.320;43.990;2023-03-31T15:18:15;98597.72;;;5.17;79.40
74973;BME280;63529;56.320;43.990;2023-03-31T15:20:43;98603.00;;;5.17;79.36
74973;BME280;63529;56.320;43.990;2023-03-31T15:23:21;98597.72;;;5.17;79.27
74973;BME280;63529;56.320;43.990;2023-03-31T15:28:21;98607.50;;;5.17;79.41
74973;BME280;63529;56.320;43.990;2023-03-31T15:30:48;98606.72;;;5.16;79.73
74973;BME280;63529;56.320;43.990;2023-03-31T15:33:32;98604.84;;;5.17;79.75
74973;BME280;63529;56.320;43.990;2023-03-31T15:36:01;98613.31;;;5.19;79.69
74973;BME280;63529;56.320;43.990;2023-03-31T15:38:28;98625.50;;;5.20;79.64
74973;BME280;63529;56.320;43.990;2023-03-31T15:40:56;98624.44;;;5.21;79.82
74973;BME280;63529;56.320;43.990;2023-03-31T15:43:30;98630.56;;;5.22;79.69
74973;BME280;63529;56.320;43.990;2023-03-31T15:45:57;98633.72;;;5.24;80.06
74973;BME280;63529;56.320;43.990;2023-03-31T15:48:36;98636.09;;;5.25;79.85
74973;BME280;63529;56.320;43.990;2023-03-31T15:51:16;98632.41;;;5.26;79.88
74973;BME280;63529;56.320;43.990;2023-03-31T15:53:47;98634.78;;;5.28;79.69
74973;BME280;63529;56.320;43.990;2023-03-31T15:56:42;98641.69;;;5.29;79.86